sensor_id;sensor_type;location;lat;lon;timestamp;temperature;humidity
70708;SHT30;58277;47.316;18.908;2024-01-15T00:00:53;0.62;79.63
70708;SHT30;58277;47.316;18.908;2024-01-15T00:03:16;0.41;80.26
70708;SHT30;58277;47.316;18.908;2024-01-15T00:05:39;0.48;80.61
70708;SHT30;58277;47.316;18.908;2024-01-15T00:08:02;0.48;80.44
70708;SHT30;58277;47.316;18.908;2024-01-15T00:10:25;0.31;80.88
70708;SHT30;58277;47.316;18.908;2024-01-15T00:12:47;0.24;81.28
70708;SHT30;58277;47.316;18.908;2024-01-15T00:15:10;0.22;81.48
70708;SHT30;58277;47.316;18.908;2024-01-15T00:17:33;0.27;81.47
70708;SHT30;58277;47.316;18.908;2024-01-15T00:19:56;0.22;81.63
70708;SHT30;58277;47.316;18.908;2024-01-15T00:22:19;0.09;81.92
70708;SHT30;58277;47.316;18.908;2024-01-15T00:24:42;0.04;82.06
70708;SHT30;58277;47.316;18.908;2024-01-15T00:27:05;0.06;82.10
70708;SHT30;58277;47.316;18.908;2024-01-15T00:29:27;0.18;81.60
70708;SHT30;58277;47.316;18.908;2024-01-15T00:31:50;0.06;82.08
70708;SHT30;58277;47.316;18.908;2024-01-15T00:34:13;0.06;82.30
70708;SHT30;58277;47.316;18.908;2024-01-15T00:36:36;0.11;82.24
70708;SHT30;58277;47.316;18.908;2024-01-15T00:38:59;0.03;82.38
70708;SHT30;58277;47.316;18.908;2024-01-15T00:41:21;0.14;82.11
70708;SHT30;58277;47.316;18.908;2024-01-15T00:43:45;0.07;82.20
70708;SHT30;58277;47.316;18.908;2024-01-15T00:46:08;-0.11;82.88
70708;SHT30;58277;47.316;18.908;2024-01-15T00:48:31;-0.13;83.06
70708;SHT30;58277;47.316;18.908;2024-01-15T00:50:54;-0.17;83.21
70708;SHT30;58277;47.316;18.908;2024-01-15T00:53:17;-0.03;83.18
70708;SHT30;58277;47.316;18.908;2024-01-15T00:55:40;0.06;82.95
70708;SHT30;58277;47.316;18.908;2024-01-15T00:58:03;0.09;82.95
70708;SHT30;58277;47.316;18.908;2024-01-15T01:00:26;0.14;82.62
70708;SHT30;58277;47.316;18.908;2024-01-15T01:02:49;-0.03;83.00
70708;SHT30;58277;47.316;18.908;2024-01-15T01:05:12;-0.13;83.70
70708;SHT30;58277;47.316;18.908;2024-01-15T01:07:35;-0.14;83.68
70708;SHT30;58277;47.316;18.908;2024-01-15T01:09:58;-0.27;83.82
70708;SHT30;58277;47.316;18.908;2024-01-15T01:12:21;-0.42;84.41
70708;SHT30;58277;47.316;18.908;2024-01-15T01:14:43;-0.32;83.98
70708;SHT30;58277;47.316;18.908;2024-01-15T01:17:06;-0.41;83.89
70708;SHT30;58277;47.316;18.908;2024-01-15T01:19:29;-0.45;84.47
70708;SHT30;58277;47.316;18.908;2024-01-15T01:21:53;-0.55;84.98
70708;SHT30;58277;47.316;18.908;2024-01-15T01:24:16;-0.72;85.81
70708;SHT30;58277;47.316;18.908;2024-01-15T01:26:39;-0.73;85.92
70708;SHT30;58277;47.316;18.908;2024-01-15T01:29:02;-0.69;86.06
70708;SHT30;58277;47.316;18.908;2024-01-15T01:31:24;-0.68;86.03
70708;SHT30;58277;47.316;18.908;2024-01-15T01:33:47;-0.85;86.68
70708;SHT30;58277;47.316;18.908;2024-01-15T01:36:10;-0.75;86.74
70708;SHT30;58277;47.316;18.908;2024-01-15T01:38:33;-0.93;87.44
70708;SHT30;58277;47.316;18.908;2024-01-15T01:40:56;-0.90;87.71
70708;SHT30;58277;47.316;18.908;2024-01-15T01:43:19;-0.83;87.39
70708;SHT30;58277;47.316;18.908;2024-01-15T01:45:42;-0.99;87.14
70708;SHT30;58277;47.316;18.908;2024-01-15T01:48:05;-0.97;87.31
70708;SHT30;58277;47.316;18.908;2024-01-15T01:50:32;-1.00;87.33
70708;SHT30;58277;47.316;18.908;2024-01-15T01:52:55;-1.10;87.73
70708;SHT30;58277;47.316;18.908;2024-01-15T01:55:18;-1.01;87.99
70708;SHT30;58277;47.316;18.908;2024-01-15T01:57:41;-0.99;88.07
70708;SHT30;58277;47.316;18.908;2024-01-15T02:00:05;-0.93;87.90
70708;SHT30;58277;47.316;18.908;2024-01-15T02:02:36;-0.92;87.65
70708;SHT30;58277;47.316;18.908;2024-01-15T02:04:59;-0.97;88.20
70708;SHT30;58277;47.316;18.908;2024-01-15T02:07:22;-0.96;87.64
70708;SHT30;58277;47.316;18.908;2024-01-15T02:09:45;-1.03;88.29
70708;SHT30;58277;47.316;18.908;2024-01-15T02:12:08;-0.96;87.75
70708;SHT30;58277;47.316;18.908;2024-01-15T02:14:31;-1.13;88.40
70708;SHT30;58277;47.316;18.908;2024-01-15T02:16:53;-1.14;88.51
70708;SHT30;58277;47.316;18.908;2024-01-15T02:19:17;-1.03;88.54
70708;SHT30;58277;47.316;18.908;2024-01-15T02:21:40;-1.05;88.63
70708;SHT30;58277;47.316;18.908;2024-01-15T02:24:03;-1.01;88.47
70708;SHT30;58277;47.316;18.908;2024-01-15T02:26:26;-1.08;88.59
70708;SHT30;58277;47.316;18.908;2024-01-15T02:28:50;-1.20;89.36
70708;SHT30;58277;47.316;18.908;2024-01-15T02:31:13;-1.10;89.27
70708;SHT30;58277;47.316;18.908;2024-01-15T02:33:36;-1.31;89.22
70708;SHT30;58277;47.316;18.908;2024-01-15T02:35:59;-1.25;89.37
70708;SHT30;58277;47.316;18.908;2024-01-15T02:38:22;-1.15;89.40
70708;SHT30;58277;47.316;18.908;2024-01-15T02:40:45;-1.21;89.33
70708;SHT30;58277;47.316;18.908;2024-01-15T02:43:07;-1.34;89.34
70708;SHT30;58277;47.316;18.908;2024-01-15T02:45:30;-1.34;89.39
70708;SHT30;58277;47.316;18.908;2024-01-15T02:47:53;-1.32;89.61
70708;SHT30;58277;47.316;18.908;2024-01-15T02:50:16;-1.54;89.72
70708;SHT30;58277;47.316;18.908;2024-01-15T02:52:39;-1.55;89.71
70708;SHT30;58277;47.316;18.908;2024-01-15T02:55:01;-1.69;89.16
70708;SHT30;58277;47.316;18.908;2024-01-15T02:57:24;-1.72;89.13
70708;SHT30;58277;47.316;18.908;2024-01-15T02:59:47;-1.91;89.05
70708;SHT30;58277;47.316;18.908;2024-01-15T03:02:09;-2.07;89.38
70708;SHT30;58277;47.316;18.908;2024-01-15T03:04:32;-2.24;89.48
70708;SHT30;58277;47.316;18.908;2024-01-15T03:06:55;-2.24;89.36
70708;SHT30;58277;47.316;18.908;2024-01-15T03:09:17;-2.11;89.22
70708;SHT30;58277;47.316;18.908;2024-01-15T03:11:40;-2.27;89.38
70708;SHT30;58277;47.316;18.908;2024-01-15T03:14:03;-2.11;89.30
70708;SHT30;58277;47.316;18.908;2024-01-15T03:16:26;-2.13;89.13
70708;SHT30;58277;47.316;18.908;2024-01-15T03:18:49;-2.07;89.41
70708;SHT30;58277;47.316;18.908;2024-01-15T03:21:11;-2.04;89.42
70708;SHT30;58277;47.316;18.908;2024-01-15T03:23:34;-2.11;89.41
70708;SHT30;58277;47.316;18.908;2024-01-15T03:25:57;-2.10;89.53
70708;SHT30;58277;47.316;18.908;2024-01-15T03:28:19;-1.90;89.16
70708;SHT30;58277;47.316;18.908;2024-01-15T03:30:42;-1.82;88.89
70708;SHT30;58277;47.316;18.908;2024-01-15T03:33:05;-1.87;88.77
70708;SHT30;58277;47.316;18.908;2024-01-15T03:35:28;-1.90;88.96
70708;SHT30;58277;47.316;18.908;2024-01-15T03:37:53;-1.82;88.76
70708;SHT30;58277;47.316;18.908;2024-01-15T03:40:15;-1.79;88.83
70708;SHT30;58277;47.316;18.908;2024-01-15T03:42:42;-1.66;88.32
70708;SHT30;58277;47.316;18.908;2024-01-15T03:45:05;-1.61;87.87
70708;SHT30;58277;47.316;18.908;2024-01-15T03:47:28;-1.80;88.11
70708;SHT30;58277;47.316;18.908;2024-01-15T03:49:50;-1.94;88.49
70708;SHT30;58277;47.316;18.908;2024-01-15T03:52:13;-1.87;88.79
70708;SHT30;58277;47.316;18.908;2024-01-15T03:54:36;-1.97;88.67
70708;SHT30;58277;47.316;18.908;2024-01-15T03:57:00;-2.13;88.68
70708;SHT30;58277;47.316;18.908;2024-01-15T03:59:23;-2.15;88.22
70708;SHT30;58277;47.316;18.908;2024-01-15T04:01:49;-2.31;86.31
70708;SHT30;58277;47.316;18.908;2024-01-15T04:04:13;-2.47;85.74
70708;SHT30;58277;47.316;18.908;2024-01-15T04:06:39;-2.58;86.69
70708;SHT30;58277;47.316;18.908;2024-01-15T04:09:01;-2.54;87.06
70708;SHT30;58277;47.316;18.908;2024-01-15T04:11:24;-2.66;87.41
70708;SHT30;58277;47.316;18.908;2024-01-15T04:13:47;-2.69;87.58
70708;SHT30;58277;47.316;18.908;2024-01-15T04:16:10;-2.79;87.81
70708;SHT30;58277;47.316;18.908;2024-01-15T04:18:32;-2.77;87.28
70708;SHT30;58277;47.316;18.908;2024-01-15T04:20:55;-2.68;87.95
70708;SHT30;58277;47.316;18.908;2024-01-15T04:23:18;-2.62;88.29
70708;SHT30;58277;47.316;18.908;2024-01-15T04:25:41;-2.48;88.80
70708;SHT30;58277;47.316;18.908;2024-01-15T04:28:05;-2.61;89.01
70708;SHT30;58277;47.316;18.908;2024-01-15T04:30:28;-2.68;89.61
70708;SHT30;58277;47.316;18.908;2024-01-15T04:32:51;-2.58;89.61
70708;SHT30;58277;47.316;18.908;2024-01-15T04:35:14;-2.47;89.68
70708;SHT30;58277;47.316;18.908;2024-01-15T04:37:36;-2.36;89.42
70708;SHT30;58277;47.316;18.908;2024-01-15T04:40:00;-2.27;89.26
70708;SHT30;58277;47.316;18.908;2024-01-15T04:42:23;-2.21;89.20
70708;SHT30;58277;47.316;18.908;2024-01-15T04:44:46;-2.24;88.97
70708;SHT30;58277;47.316;18.908;2024-01-15T04:47:09;-2.33;88.98
70708;SHT30;58277;47.316;18.908;2024-01-15T04:49:32;-2.42;89.23
70708;SHT30;58277;47.316;18.908;2024-01-15T04:51:54;-2.62;89.50
70708;SHT30;58277;47.316;18.908;2024-01-15T04:54:19;-2.70;89.17
70708;SHT30;58277;47.316;18.908;2024-01-15T04:56:43;-2.93;89.10
70708;SHT30;58277;47.316;18.908;2024-01-15T04:59:07;-3.08;89.37
70708;SHT30;58277;47.316;18.908;2024-01-15T05:01:31;-3.23;89.74
70708;SHT30;58277;47.316;18.908;2024-01-15T05:03:54;-3.14;89.64
70708;SHT30;58277;47.316;18.908;2024-01-15T05:06:21;-3.14;89.65
70708;SHT30;58277;47.316;18.908;2024-01-15T05:08:44;-3.04;89.46
70708;SHT30;58277;47.316;18.908;2024-01-15T05:11:06;-3.16;89.23
70708;SHT30;58277;47.316;18.908;2024-01-15T05:13:29;-2.97;89.37
70708;SHT30;58277;47.316;18.908;2024-01-15T05:15:52;-2.92;89.44
70708;SHT30;58277;47.316;18.908;2024-01-15T05:18:16;-2.89;88.92
70708;SHT30;58277;47.316;18.908;2024-01-15T05:20:40;-2.73;89.08
70708;SHT30;58277;47.316;18.908;2024-01-15T05:23:02;-2.70;89.13
70708;SHT30;58277;47.316;18.908;2024-01-15T05:25:25;-2.52;89.00
70708;SHT30;58277;47.316;18.908;2024-01-15T05:27:48;-2.49;88.67
70708;SHT30;58277;47.316;18.908;2024-01-15T05:30:11;-2.55;88.36
70708;SHT30;58277;47.316;18.908;2024-01-15T05:32:37;-2.40;87.95
70708;SHT30;58277;47.316;18.908;2024-01-15T05:35:00;-2.37;87.80
70708;SHT30;58277;47.316;18.908;2024-01-15T05:37:24;-2.66;88.49
70708;SHT30;58277;47.316;18.908;2024-01-15T05:39:47;-2.64;88.33
70708;SHT30;58277;47.316;18.908;2024-01-15T05:42:10;-2.62;88.45
70708;SHT30;58277;47.316;18.908;2024-01-15T05:44:34;-2.72;88.68
70708;SHT30;58277;47.316;18.908;2024-01-15T05:46:57;-2.75;88.75
70708;SHT30;58277;47.316;18.908;2024-01-15T05:49:20;-2.79;88.66
70708;SHT30;58277;47.316;18.908;2024-01-15T05:51:43;-2.79;88.69
70708;SHT30;58277;47.316;18.908;2024-01-15T05:54:06;-2.85;88.73
70708;SHT30;58277;47.316;18.908;2024-01-15T05:56:31;-2.73;88.64
70708;SHT30;58277;47.316;18.908;2024-01-15T05:58:54;-2.80;88.65
70708;SHT30;58277;47.316;18.908;2024-01-15T06:01:17;-2.76;88.47
70708;SHT30;58277;47.316;18.908;2024-01-15T06:03:40;-2.72;88.43
70708;SHT30;58277;47.316;18.908;2024-01-15T06:06:03;-2.68;88.22
70708;SHT30;58277;47.316;18.908;2024-01-15T06:08:26;-2.65;87.99
70708;SHT30;58277;47.316;18.908;2024-01-15T06:10:50;-2.73;88.06
70708;SHT30;58277;47.316;18.908;2024-01-15T06:13:13;-2.79;88.42
70708;SHT30;58277;47.316;18.908;2024-01-15T06:15:36;-2.80;88.31
70708;SHT30;58277;47.316;18.908;2024-01-15T06:17:59;-2.79;88.60
70708;SHT30;58277;47.316;18.908;2024-01-15T06:20:22;-2.87;88.72
70708;SHT30;58277;47.316;18.908;2024-01-15T06:22:45;-2.64;88.65
70708;SHT30;58277;47.316;18.908;2024-01-15T06:25:08;-2.62;88.58
70708;SHT30;58277;47.316;18.908;2024-01-15T06:27:31;-2.59;88.59
70708;SHT30;58277;47.316;18.908;2024-01-15T06:29:54;-2.48;88.60
70708;SHT30;58277;47.316;18.908;2024-01-15T06:32:18;-2.28;88.02
70708;SHT30;58277;47.316;18.908;2024-01-15T06:34:41;-2.26;87.61
70708;SHT30;58277;47.316;18.908;2024-01-15T06:37:05;-2.10;87.37
70708;SHT30;58277;47.316;18.908;2024-01-15T06:39:28;-2.00;86.92
70708;SHT30;58277;47.316;18.908;2024-01-15T06:41:51;-1.99;86.20
70708;SHT30;58277;47.316;18.908;2024-01-15T06:44:14;-2.00;85.73
70708;SHT30;58277;47.316;18.908;2024-01-15T06:46:44;-1.83;86.01
70708;SHT30;58277;47.316;18.908;2024-01-15T06:49:07;-1.73;86.20
70708;SHT30;58277;47.316;18.908;2024-01-15T06:51:30;-1.68;85.96
70708;SHT30;58277;47.316;18.908;2024-01-15T06:53:53;-1.45;85.43
70708;SHT30;58277;47.316;18.908;2024-01-15T06:56:16;-1.45;85.43
70708;SHT30;58277;47.316;18.908;2024-01-15T06:58:39;-1.35;85.09
70708;SHT30;58277;47.316;18.908;2024-01-15T07:01:03;-1.41;84.99
70708;SHT30;58277;47.316;18.908;2024-01-15T07:03:27;-1.35;85.04
70708;SHT30;58277;47.316;18.908;2024-01-15T07:05:52;-1.18;84.86
70708;SHT30;58277;47.316;18.908;2024-01-15T07:08:23;-1.31;84.92
70708;SHT30;58277;47.316;18.908;2024-01-15T07:11:05;-1.18;85.00
70708;SHT30;58277;47.316;18.908;2024-01-15T07:13:38;-1.25;85.41
70708;SHT30;58277;47.316;18.908;2024-01-15T07:16:09;-1.07;84.83
70708;SHT30;58277;47.316;18.908;2024-01-15T07:18:45;-0.92;84.81
70708;SHT30;58277;47.316;18.908;2024-01-15T07:21:16;-0.75;84.57
70708;SHT30;58277;47.316;18.908;2024-01-15T07:23:42;-0.46;83.88
70708;SHT30;58277;47.316;18.908;2024-01-15T07:26:08;-0.28;83.09
70708;SHT30;58277;47.316;18.908;2024-01-15T07:28:32;-0.25;83.23
70708;SHT30;58277;47.316;18.908;2024-01-15T07:30:57;-0.27;83.08
70708;SHT30;58277;47.316;18.908;2024-01-15T07:33:21;-0.35;83.53
70708;SHT30;58277;47.316;18.908;2024-01-15T07:35:44;-0.22;83.85
70708;SHT30;58277;47.316;18.908;2024-01-15T07:38:07;-0.19;84.02
70708;SHT30;58277;47.316;18.908;2024-01-15T07:40:30;-0.18;84.33
70708;SHT30;58277;47.316;18.908;2024-01-15T07:42:53;-0.25;84.52
70708;SHT30;58277;47.316;18.908;2024-01-15T07:45:17;-0.38;84.75
70708;SHT30;58277;47.316;18.908;2024-01-15T07:47:40;-0.56;85.09
70708;SHT30;58277;47.316;18.908;2024-01-15T07:50:03;-0.37;84.99
70708;SHT30;58277;47.316;18.908;2024-01-15T07:52:29;-0.27;84.74
70708;SHT30;58277;47.316;18.908;2024-01-15T07:54:54;-0.31;84.68
70708;SHT30;58277;47.316;18.908;2024-01-15T07:57:17;-0.31;84.93
70708;SHT30;58277;47.316;18.908;2024-01-15T07:59:40;-0.22;84.62
70708;SHT30;58277;47.316;18.908;2024-01-15T08:02:04;-0.25;84.65
70708;SHT30;58277;47.316;18.908;2024-01-15T08:04:27;-0.41;84.59
70708;SHT30;58277;47.316;18.908;2024-01-15T08:06:51;-0.55;84.18
70708;SHT30;58277;47.316;18.908;2024-01-15T08:09:13;-0.59;83.71
70708;SHT30;58277;47.316;18.908;2024-01-15T08:11:40;-0.61;83.58
70708;SHT30;58277;47.316;18.908;2024-01-15T08:14:04;-0.62;83.54
70708;SHT30;58277;47.316;18.908;2024-01-15T08:16:27;-0.48;82.73
70708;SHT30;58277;47.316;18.908;2024-01-15T08:18:50;-0.39;82.55
70708;SHT30;58277;47.316;18.908;2024-01-15T08:21:13;-0.32;82.42
70708;SHT30;58277;47.316;18.908;2024-01-15T08:23:36;-0.34;81.89
70708;SHT30;58277;47.316;18.908;2024-01-15T08:25:58;-0.29;81.65
70708;SHT30;58277;47.316;18.908;2024-01-15T08:28:22;-0.31;81.49
70708;SHT30;58277;47.316;18.908;2024-01-15T08:30:44;-0.08;81.64
70708;SHT30;58277;47.316;18.908;2024-01-15T08:33:08;0.00;81.05
70708;SHT30;58277;47.316;18.908;2024-01-15T08:35:42;0.11;80.99
70708;SHT30;58277;47.316;18.908;2024-01-15T08:38:05;0.28;80.48
70708;SHT30;58277;47.316;18.908;2024-01-15T08:40:28;0.30;80.35
70708;SHT30;58277;47.316;18.908;2024-01-15T08:42:53;0.32;79.86
70708;SHT30;58277;47.316;18.908;2024-01-15T08:45:16;0.45;80.00
70708;SHT30;58277;47.316;18.908;2024-01-15T08:47:39;0.49;79.66
70708;SHT30;58277;47.316;18.908;2024-01-15T08:50:03;0.70;79.37
70708;SHT30;58277;47.316;18.908;2024-01-15T08:52:26;0.70;79.07
70708;SHT30;58277;47.316;18.908;2024-01-15T08:54:49;0.78;78.60
70708;SHT30;58277;47.316;18.908;2024-01-15T08:57:14;0.96;78.31
70708;SHT30;58277;47.316;18.908;2024-01-15T08:59:36;1.01;78.47
70708;SHT30;58277;47.316;18.908;2024-01-15T09:02:01;1.16;77.69
70708;SHT30;58277;47.316;18.908;2024-01-15T09:04:24;1.19;77.31
70708;SHT30;58277;47.316;18.908;2024-01-15T09:06:47;1.34;77.25
70708;SHT30;58277;47.316;18.908;2024-01-15T09:09:13;1.47;76.82
70708;SHT30;58277;47.316;18.908;2024-01-15T09:11:37;1.33;78.63
70708;SHT30;58277;47.316;18.908;2024-01-15T09:14:20;1.35;78.17
70708;SHT30;58277;47.316;18.908;2024-01-15T09:16:58;1.58;77.66
70708;SHT30;58277;47.316;18.908;2024-01-15T09:19:21;1.76;77.39
70708;SHT30;58277;47.316;18.908;2024-01-15T09:21:43;1.92;76.95
70708;SHT30;58277;47.316;18.908;2024-01-15T09:24:27;2.19;75.99
70708;SHT30;58277;47.316;18.908;2024-01-15T09:26:52;2.34;75.17
70708;SHT30;58277;47.316;18.908;2024-01-15T09:29:15;2.50;74.64
70708;SHT30;58277;47.316;18.908;2024-01-15T09:31:40;2.72;71.82
70708;SHT30;58277;47.316;18.908;2024-01-15T09:34:04;2.82;72.14
70708;SHT30;58277;47.316;18.908;2024-01-15T09:36:27;2.82;72.51
70708;SHT30;58277;47.316;18.908;2024-01-15T09:38:50;3.00;71.98
70708;SHT30;58277;47.316;18.908;2024-01-15T09:41:13;2.99;70.19
70708;SHT30;58277;47.316;18.908;2024-01-15T09:43:37;3.12;69.45
70708;SHT30;58277;47.316;18.908;2024-01-15T09:46:02;3.28;68.23
70708;SHT30;58277;47.316;18.908;2024-01-15T09:48:25;3.31;67.63
70708;SHT30;58277;47.316;18.908;2024-01-15T09:50:49;3.30;67.34
70708;SHT30;58277;47.316;18.908;2024-01-15T09:53:15;3.48;67.02
70708;SHT30;58277;47.316;18.908;2024-01-15T09:55:38;3.46;66.96
70708;SHT30;58277;47.316;18.908;2024-01-15T09:58:02;3.50;66.92
70708;SHT30;58277;47.316;18.908;2024-01-15T10:00:28;3.46;65.69
70708;SHT30;58277;47.316;18.908;2024-01-15T10:02:52;3.63;65.67
70708;SHT30;58277;47.316;18.908;2024-01-15T10:05:15;3.63;65.66
70708;SHT30;58277;47.316;18.908;2024-01-15T10:07:38;3.64;65.47
70708;SHT30;58277;47.316;18.908;2024-01-15T10:10:03;3.81;64.76
70708;SHT30;58277;47.316;18.908;2024-01-15T10:12:30;4.02;63.87
70708;SHT30;58277;47.316;18.908;2024-01-15T10:14:53;4.14;62.82
70708;SHT30;58277;47.316;18.908;2024-01-15T10:17:16;4.20;62.42
70708;SHT30;58277;47.316;18.908;2024-01-15T10:19:41;4.34;61.66
70708;SHT30;58277;47.316;18.908;2024-01-15T10:22:10;4.46;59.33
70708;SHT30;58277;47.316;18.908;2024-01-15T10:24:37;4.54;59.46
70708;SHT30;58277;47.316;18.908;2024-01-15T10:27:07;4.72;59.03
70708;SHT30;58277;47.316;18.908;2024-01-15T10:29:31;4.72;58.07
70708;SHT30;58277;47.316;18.908;2024-01-15T10:31:54;4.79;58.80
70708;SHT30;58277;47.316;18.908;2024-01-15T10:34:19;4.64;59.32
70708;SHT30;58277;47.316;18.908;2024-01-15T10:36:46;4.71;58.71
70708;SHT30;58277;47.316;18.908;2024-01-15T10:39:13;4.68;59.29
70708;SHT30;58277;47.316;18.908;2024-01-15T10:41:37;4.70;59.47
70708;SHT30;58277;47.316;18.908;2024-01-15T10:44:00;4.70;59.24
70708;SHT30;58277;47.316;18.908;2024-01-15T10:46:24;4.77;58.70
70708;SHT30;58277;47.316;18.908;2024-01-15T10:48:47;4.87;58.62
70708;SHT30;58277;47.316;18.908;2024-01-15T10:51:10;4.99;58.36
70708;SHT30;58277;47.316;18.908;2024-01-15T10:53:34;5.12;58.09
70708;SHT30;58277;47.316;18.908;2024-01-15T10:55:59;5.13;57.43
70708;SHT30;58277;47.316;18.908;2024-01-15T10:58:22;5.16;57.99
70708;SHT30;58277;47.316;18.908;2024-01-15T11:00:46;5.05;56.34
70708;SHT30;58277;47.316;18.908;2024-01-15T11:03:10;5.08;57.00
70708;SHT30;58277;47.316;18.908;2024-01-15T11:05:44;4.98;57.36
70708;SHT30;58277;47.316;18.908;2024-01-15T11:08:07;5.04;57.56
70708;SHT30;58277;47.316;18.908;2024-01-15T11:10:47;5.11;56.32
70708;SHT30;58277;47.316;18.908;2024-01-15T11:13:19;5.18;56.08
70708;SHT30;58277;47.316;18.908;2024-01-15T11:15:57;5.19;56.85
70708;SHT30;58277;47.316;18.908;2024-01-15T11:18:21;5.20;56.27
70708;SHT30;58277;47.316;18.908;2024-01-15T11:23:46;5.26;56.38
70708;SHT30;58277;47.316;18.908;2024-01-15T11:26:37;5.30;55.83
70708;SHT30;58277;47.316;18.908;2024-01-15T11:29:08;5.32;55.64
70708;SHT30;58277;47.316;18.908;2024-01-15T11:34:08;5.39;55.42
70708;SHT30;58277;47.316;18.908;2024-01-15T11:41:58;5.63;56.30
70708;SHT30;58277;47.316;18.908;2024-01-15T11:44:22;5.64;55.74
70708;SHT30;58277;47.316;18.908;2024-01-15T11:47:02;5.68;55.43
70708;SHT30;58277;47.316;18.908;2024-01-15T11:51:55;5.58;55.51
70708;SHT30;58277;47.316;18.908;2024-01-15T11:54:22;5.73;55.34
70708;SHT30;58277;47.316;18.908;2024-01-15T11:56:47;5.88;55.26
70708;SHT30;58277;47.316;18.908;2024-01-15T11:59:11;5.87;55.42
70708;SHT30;58277;47.316;18.908;2024-01-15T12:01:34;5.91;54.89
70708;SHT30;58277;47.316;18.908;2024-01-15T12:03:58;5.77;55.06
70708;SHT30;58277;47.316;18.908;2024-01-15T12:06:21;5.81;55.71
70708;SHT30;58277;47.316;18.908;2024-01-15T12:08:48;5.91;55.04
70708;SHT30;58277;47.316;18.908;2024-01-15T12:11:15;5.91;54.59
70708;SHT30;58277;47.316;18.908;2024-01-15T12:13:41;5.84;54.70
70708;SHT30;58277;47.316;18.908;2024-01-15T12:16:05;5.91;55.37
70708;SHT30;58277;47.316;18.908;2024-01-15T12:18:30;5.87;54.42
70708;SHT30;58277;47.316;18.908;2024-01-15T12:20:54;5.90;54.33
70708;SHT30;58277;47.316;18.908;2024-01-15T12:23:17;5.85;54.28
70708;SHT30;58277;47.316;18.908;2024-01-15T12:25:41;5.84;54.82
70708;SHT30;58277;47.316;18.908;2024-01-15T12:28:05;5.77;54.90
70708;SHT30;58277;47.316;18.908;2024-01-15T12:30:29;5.81;55.17
70708;SHT30;58277;47.316;18.908;2024-01-15T12:32:55;5.83;55.02
70708;SHT30;58277;47.316;18.908;2024-01-15T12:35:18;5.91;55.03
70708;SHT30;58277;47.316;18.908;2024-01-15T12:37:42;5.85;54.87
70708;SHT30;58277;47.316;18.908;2024-01-15T12:40:08;5.88;54.82
70708;SHT30;58277;47.316;18.908;2024-01-15T12:42:36;5.90;53.71
70708;SHT30;58277;47.316;18.908;2024-01-15T12:45:00;5.97;53.72
70708;SHT30;58277;47.316;18.908;2024-01-15T12:47:23;5.99;53.45
70708;SHT30;58277;47.316;18.908;2024-01-15T12:49:47;5.97;53.50
70708;SHT30;58277;47.316;18.908;2024-01-15T12:52:13;5.90;53.35
70708;SHT30;58277;47.316;18.908;2024-01-15T12:54:36;5.91;53.55
70708;SHT30;58277;47.316;18.908;2024-01-15T12:56:59;5.83;53.93
70708;SHT30;58277;47.316;18.908;2024-01-15T12:59:22;5.81;53.91
70708;SHT30;58277;47.316;18.908;2024-01-15T13:01:46;5.73;54.04
70708;SHT30;58277;47.316;18.908;2024-01-15T13:04:09;5.75;54.18
70708;SHT30;58277;47.316;18.908;2024-01-15T13:06:32;5.78;53.81
70708;SHT30;58277;47.316;18.908;2024-01-15T13:08:55;5.83;53.60
70708;SHT30;58277;47.316;18.908;2024-01-15T13:11:18;5.78;54.80
70708;SHT30;58277;47.316;18.908;2024-01-15T13:13:41;5.78;54.43
70708;SHT30;58277;47.316;18.908;2024-01-15T13:16:04;5.74;54.31
70708;SHT30;58277;47.316;18.908;2024-01-15T13:18:27;5.79;54.28
70708;SHT30;58277;47.316;18.908;2024-01-15T13:20:50;5.85;54.37
70708;SHT30;58277;47.316;18.908;2024-01-15T13:23:13;5.77;54.26
70708;SHT30;58277;47.316;18.908;2024-01-15T13:25:36;5.83;54.44
70708;SHT30;58277;47.316;18.908;2024-01-15T13:28:00;5.87;54.29
70708;SHT30;58277;47.316;18.908;2024-01-15T13:30:25;5.90;54.07
70708;SHT30;58277;47.316;18.908;2024-01-15T13:32:48;5.84;54.29
70708;SHT30;58277;47.316;18.908;2024-01-15T13:35:11;5.88;54.46
70708;SHT30;58277;47.316;18.908;2024-01-15T13:37:36;5.83;54.06
70708;SHT30;58277;47.316;18.908;2024-01-15T13:40:00;5.77;53.93
70708;SHT30;58277;47.316;18.908;2024-01-15T13:42:23;5.85;54.30
70708;SHT30;58277;47.316;18.908;2024-01-15T13:44:47;5.88;54.06
70708;SHT30;58277;47.316;18.908;2024-01-15T13:47:10;5.81;54.65
70708;SHT30;58277;47.316;18.908;2024-01-15T13:49:33;5.84;53.77
70708;SHT30;58277;47.316;18.908;2024-01-15T13:51:57;5.75;53.72
70708;SHT30;58277;47.316;18.908;2024-01-15T13:54:20;5.81;53.76
70708;SHT30;58277;47.316;18.908;2024-01-15T13:56:47;5.71;54.23
70708;SHT30;58277;47.316;18.908;2024-01-15T13:59:09;5.75;54.37
70708;SHT30;58277;47.316;18.908;2024-01-15T14:01:32;5.79;54.22
70708;SHT30;58277;47.316;18.908;2024-01-15T14:03:55;5.77;54.46
70708;SHT30;58277;47.316;18.908;2024-01-15T14:06:19;5.60;54.57
70708;SHT30;58277;47.316;18.908;2024-01-15T14:08:43;5.58;54.67
70708;SHT30;58277;47.316;18.908;2024-01-15T14:11:06;5.48;55.21
70708;SHT30;58277;47.316;18.908;2024-01-15T14:13:29;5.37;55.76
70708;SHT30;58277;47.316;18.908;2024-01-15T14:15:52;5.29;55.96
70708;SHT30;58277;47.316;18.908;2024-01-15T14:18:16;5.33;56.28
70708;SHT30;58277;47.316;18.908;2024-01-15T14:20:42;5.16;57.11
70708;SHT30;58277;47.316;18.908;2024-01-15T14:23:06;5.11;57.00
70708;SHT30;58277;47.316;18.908;2024-01-15T14:25:29;5.08;56.14
70708;SHT30;58277;47.316;18.908;2024-01-15T14:27:51;5.00;56.14
70708;SHT30;58277;47.316;18.908;2024-01-15T14:30:16;4.95;56.47
70708;SHT30;58277;47.316;18.908;2024-01-15T14:32:40;4.91;56.80
70708;SHT30;58277;47.316;18.908;2024-01-15T14:35:05;4.89;56.88
70708;SHT30;58277;47.316;18.908;2024-01-15T14:37:29;4.81;57.41
70708;SHT30;58277;47.316;18.908;2024-01-15T14:39:51;4.75;57.58
70708;SHT30;58277;47.316;18.908;2024-01-15T14:42:16;4.77;57.69
70708;SHT30;58277;47.316;18.908;2024-01-15T14:44:39;4.85;57.58
70708;SHT30;58277;47.316;18.908;2024-01-15T14:47:03;4.91;57.41
70708;SHT30;58277;47.316;18.908;2024-01-15T14:49:26;4.95;57.64
70708;SHT30;58277;47.316;18.908;2024-01-15T14:51:50;4.87;58.57
70708;SHT30;58277;47.316;18.908;2024-01-15T14:54:13;4.89;58.50
70708;SHT30;58277;47.316;18.908;2024-01-15T14:56:38;4.91;58.01
70708;SHT30;58277;47.316;18.908;2024-01-15T14:59:01;4.91;57.82
70708;SHT30;58277;47.316;18.908;2024-01-15T15:01:24;4.98;58.01
70708;SHT30;58277;47.316;18.908;2024-01-15T15:03:47;4.96;57.63
70708;SHT30;58277;47.316;18.908;2024-01-15T15:06:10;4.92;58.12
70708;SHT30;58277;47.316;18.908;2024-01-15T15:08:37;4.99;58.20
70708;SHT30;58277;47.316;18.908;2024-01-15T15:11:00;4.96;58.07
70708;SHT30;58277;47.316;18.908;2024-01-15T15:13:23;4.95;58.11
70708;SHT30;58277;47.316;18.908;2024-01-15T15:16:05;4.96;57.81